createdAt,value
2023-01-21T00:02:07.447Z,27.00
2023-01-21T00:04:35.288Z,34.77
2023-01-21T00:07:01.732Z,34.50
2023-01-21T00:09:28.159Z,36.27
2023-01-21T00:11:54.784Z,35.90
2023-01-21T00:14:21.206Z,34.37
2023-01-21T00:16:47.610Z,34.40
2023-01-21T00:19:15.302Z,32.27
2023-01-21T00:21:41.683Z,39.93
2023-01-21T00:24:08.128Z,33.63
2023-01-21T00:26:34.539Z,37.37
2023-01-21T00:29:01.213Z,39.40
2023-01-21T00:31:27.917Z,44.67
2023-01-21T00:33:54.385Z,35.03
2023-01-21T00:36:22.187Z,37.03
2023-01-21T00:38:49.014Z,33.67
2023-01-21T00:41:15.444Z,33.60
2023-01-21T00:43:42.096Z,35.07
2023-01-21T00:46:08.938Z,40.93
2023-01-21T00:48:35.572Z,42.60
2023-01-21T00:51:02.081Z,38.43
2023-01-21T00:53:29.635Z,40.23
2023-01-21T00:56:00.193Z,37.50
2023-01-21T00:58:27.014Z,39.77
2023-01-21T01:01:00.648Z,39.53
2023-01-21T01:03:27.043Z,34.33
2023-01-21T01:05:53.435Z,35.90
2023-01-21T01:08:19.852Z,34.17
2023-01-21T01:10:46.287Z,35.43
2023-01-21T01:13:12.649Z,35.73
2023-01-21T01:15:39.085Z,47.80
2023-01-21T01:18:05.504Z,47.73
2023-01-21T01:20:31.963Z,39.40
2023-01-21T01:22:58.431Z,45.97
2023-01-21T01:25:24.883Z,46.30
2023-01-21T01:27:51.258Z,45.87
2023-01-21T01:30:18.370Z,51.33
2023-01-21T01:32:44.918Z,43.73
2023-01-21T01:35:11.297Z,41.13
2023-01-21T01:37:37.686Z,39.57
2023-01-21T01:40:04.307Z,41.80
2023-01-21T01:42:30.878Z,43.50
2023-01-21T01:44:58.860Z,55.70
2023-01-21T01:47:37.353Z,35.83
2023-01-21T01:50:06.147Z,39.07
2023-01-21T01:52:32.632Z,53.63
2023-01-21T01:55:00.999Z,47.00
2023-01-21T01:57:32.026Z,54.57
2023-01-21T01:59:59.505Z,56.83
2023-01-21T02:02:25.944Z,61.50
2023-01-21T02:04:54.957Z,43.97
2023-01-21T02:07:22.945Z,62.77
2023-01-21T02:09:49.408Z,62.40
2023-01-21T02:12:17.945Z,50.53
2023-01-21T02:14:45.114Z,60.17
2023-01-21T02:17:11.497Z,64.13
2023-01-21T02:19:44.032Z,46.80
2023-01-21T02:22:14.901Z,56.60
2023-01-21T02:25:00.167Z,50.13
2023-01-21T02:27:35.595Z,66.40
2023-01-21T02:30:08.119Z,65.70
2023-01-21T02:32:53.462Z,61.87
2023-01-21T02:35:24.712Z,60.23
2023-01-21T02:37:59.040Z,47.90
2023-01-21T02:40:29.302Z,40.83
2023-01-21T02:43:04.607Z,50.20
2023-01-21T02:45:51.817Z,45.10
2023-01-21T02:48:21.650Z,51.13
2023-01-21T02:50:52.508Z,45.63
2023-01-21T02:53:25.392Z,52.47
2023-01-21T02:55:52.239Z,40.37
2023-01-21T02:58:20.800Z,50.93
2023-01-21T03:00:57.398Z,49.33
2023-01-21T03:03:32.951Z,54.63
2023-01-21T03:05:59.375Z,36.80
2023-01-21T03:08:49.018Z,40.13
2023-01-21T03:11:19.812Z,32.40
2023-01-21T03:14:12.886Z,43.80
2023-01-21T03:16:58.452Z,38.83
2023-01-21T03:19:40.509Z,48.73
2023-01-21T03:22:09.038Z,37.70
2023-01-21T03:24:36.549Z,38.13
2023-01-21T03:27:05.074Z,44.47
2023-01-21T03:29:32.707Z,34.80
2023-01-21T03:32:03.853Z,38.07
2023-01-21T03:34:33.102Z,34.50
2023-01-21T03:37:09.437Z,33.80
2023-01-21T03:39:42.541Z,36.10
2023-01-21T03:42:09.440Z,45.57
2023-01-21T03:44:36.518Z,46.80
2023-01-21T03:47:11.046Z,42.57
2023-01-21T03:49:52.893Z,41.00
2023-01-21T03:52:21.737Z,37.40
2023-01-21T03:54:48.999Z,40.10
2023-01-21T03:57:15.715Z,43.53
2023-01-21T03:59:42.452Z,37.53
2023-01-21T04:02:08.866Z,34.30
2023-01-21T04:04:35.345Z,41.53
2023-01-21T04:07:01.802Z,43.40
2023-01-21T04:09:28.180Z,36.30
2023-01-21T04:11:54.618Z,42.93
2023-01-21T04:14:21.190Z,48.80
2023-01-21T04:16:47.577Z,50.67
2023-01-21T04:19:13.987Z,42.43
2023-01-21T04:21:40.380Z,50.83
2023-01-21T04:24:06.961Z,39.00
2023-01-21T04:26:33.351Z,49.47
2023-01-21T04:28:59.738Z,50.60
2023-01-21T04:31:26.172Z,46.80
2023-01-21T04:33:52.579Z,53.10
2023-01-21T04:36:19.195Z,43.90
2023-01-21T04:38:45.602Z,54.10
2023-01-21T04:41:12.000Z,46.60
2023-01-21T04:43:38.437Z,38.63
2023-01-21T04:46:04.961Z,48.57
2023-01-21T04:48:31.911Z,48.77
2023-01-21T04:50:58.319Z,33.53
2023-01-21T04:53:24.919Z,40.50
2023-01-21T04:55:51.953Z,51.80
2023-01-21T04:58:19.052Z,48.93
2023-01-21T05:00:45.447Z,49.20
2023-01-21T05:03:11.911Z,50.23
2023-01-21T05:05:38.300Z,52.10
2023-01-21T05:08:04.749Z,44.63
2023-01-21T05:10:31.186Z,39.23
2023-01-21T05:12:58.528Z,51.50
2023-01-21T05:15:25.047Z,40.67
2023-01-21T05:17:51.561Z,38.63
2023-01-21T05:20:18.316Z,35.70
2023-01-21T05:22:48.765Z,45.50
2023-01-21T05:25:15.674Z,43.20
2023-01-21T05:27:42.114Z,47.33
2023-01-21T05:30:09.525Z,44.20
2023-01-21T05:32:39.908Z,51.97
2023-01-21T05:35:06.529Z,51.93
2023-01-21T05:37:32.918Z,46.80
2023-01-21T05:39:59.313Z,42.87
2023-01-21T05:42:25.828Z,42.97
2023-01-21T05:44:52.279Z,42.43
2023-01-21T05:47:18.663Z,43.77
2023-01-21T05:49:45.053Z,46.20
2023-01-21T05:52:11.526Z,47.13
2023-01-21T05:54:38.400Z,49.63
2023-01-21T05:57:06.905Z,46.30
2023-01-21T05:59:33.358Z,47.73
2023-01-21T06:01:59.773Z,47.30
2023-01-21T06:04:30.477Z,37.23
2023-01-21T06:06:57.615Z,36.87
2023-01-21T06:09:24.097Z,40.50
2023-01-21T06:11:50.500Z,42.30
2023-01-21T06:14:17.028Z,50.70
2023-01-21T06:16:43.403Z,48.97
2023-01-21T06:19:09.856Z,56.00
2023-01-21T06:21:36.220Z,41.47
2023-01-21T06:24:02.644Z,55.67
2023-01-21T06:26:29.142Z,39.97
2023-01-21T06:28:56.740Z,50.87
2023-01-21T06:31:23.632Z,44.97
2023-01-21T06:33:50.093Z,46.50
2023-01-21T06:36:16.549Z,47.23
2023-01-21T06:38:42.956Z,58.93
2023-01-21T06:41:09.439Z,59.77
2023-01-21T06:43:35.859Z,48.30
2023-01-21T06:46:02.309Z,63.90
2023-01-21T06:48:28.736Z,69.40
2023-01-21T06:50:55.162Z,73.87
2023-01-21T06:53:21.643Z,53.23
2023-01-21T06:55:48.273Z,74.60
2023-01-21T06:58:14.995Z,65.47
2023-01-21T07:00:41.411Z,54.47
2023-01-21T07:03:07.874Z,71.83
2023-01-21T07:05:34.264Z,69.40
2023-01-21T07:08:00.648Z,67.27
2023-01-21T07:10:27.322Z,58.03
2023-01-21T07:12:53.795Z,68.67
2023-01-21T07:15:20.347Z,70.17
2023-01-21T07:17:46.852Z,55.00
2023-01-21T07:20:13.348Z,73.57
2023-01-21T07:22:39.834Z,72.93
2023-01-21T07:25:06.507Z,60.77
2023-01-21T07:27:32.914Z,77.53
2023-01-21T07:29:59.356Z,78.73
2023-01-21T07:32:25.781Z,77.93
2023-01-21T07:34:52.188Z,73.77
2023-01-21T07:37:19.784Z,76.80
2023-01-21T07:39:47.192Z,76.60
2023-01-21T07:42:13.598Z,80.87
2023-01-21T07:44:39.999Z,61.80
2023-01-21T07:47:06.494Z,72.37
2023-01-21T07:49:33.051Z,69.67
2023-01-21T07:51:59.573Z,65.17
2023-01-21T07:54:26.026Z,80.83
2023-01-21T07:56:52.826Z,85.33
2023-01-21T07:59:19.266Z,84.33
2023-01-21T08:01:45.789Z,87.20
2023-01-21T08:04:12.322Z,90.27
2023-01-21T08:06:41.265Z,90.97
2023-01-21T08:09:08.086Z,91.47
2023-01-21T08:11:34.611Z,101.33
2023-01-21T08:14:01.143Z,74.03
2023-01-21T08:16:27.651Z,85.80
2023-01-21T08:18:54.554Z,91.90
2023-01-21T08:21:21.062Z,84.27
2023-01-21T08:23:47.519Z,98.03
2023-01-21T08:26:14.047Z,92.80
2023-01-21T08:28:40.558Z,90.53
2023-01-21T08:31:09.065Z,89.80
2023-01-21T08:33:36.858Z,94.97
2023-01-21T08:36:05.960Z,99.70
2023-01-21T08:38:33.161Z,78.17
2023-01-21T08:40:59.731Z,101.50
2023-01-21T08:43:26.479Z,105.17
2023-01-21T08:45:57.844Z,85.70
2023-01-21T08:48:24.408Z,77.53
2023-01-21T08:50:51.515Z,79.27
2023-01-21T08:53:18.015Z,100.90
2023-01-21T08:55:44.447Z,105.00
2023-01-21T08:58:10.882Z,88.50
2023-01-21T09:00:37.400Z,67.93
2023-01-21T09:03:03.952Z,89.33
2023-01-21T09:05:30.335Z,98.30
2023-01-21T09:07:58.150Z,84.70
2023-01-21T09:10:43.395Z,73.90
2023-01-21T09:13:10.356Z,80.47
2023-01-21T09:15:37.927Z,73.73
2023-01-21T09:18:04.352Z,77.40
2023-01-21T09:20:31.154Z,78.57
2023-01-21T09:22:57.986Z,56.83
2023-01-21T09:25:24.461Z,55.83
2023-01-21T09:27:51.343Z,52.27
2023-01-21T09:30:17.916Z,61.43
2023-01-21T09:32:44.339Z,56.80
2023-01-21T09:35:10.753Z,54.00
2023-01-21T09:37:38.454Z,53.70
2023-01-21T09:40:05.215Z,48.17
2023-01-21T09:42:32.498Z,52.50
2023-01-21T09:44:59.846Z,47.43
2023-01-21T09:47:28.331Z,47.77
2023-01-21T09:50:00.213Z,50.73
2023-01-21T09:52:30.339Z,44.27
2023-01-21T09:54:57.228Z,46.47
2023-01-21T09:57:26.809Z,47.70
2023-01-21T09:59:56.226Z,45.30
2023-01-21T10:02:30.579Z,46.10
2023-01-21T10:05:17.950Z,43.97
2023-01-21T10:07:59.165Z,48.27
2023-01-21T10:10:44.035Z,46.27
2023-01-21T10:13:22.513Z,43.90
2023-01-21T10:16:01.868Z,45.13
2023-01-21T10:18:31.196Z,43.57
2023-01-21T10:21:00.435Z,48.93
2023-01-21T10:23:29.039Z,42.07
2023-01-21T10:25:56.227Z,48.60
2023-01-21T10:28:24.145Z,41.47
2023-01-21T10:31:00.208Z,42.87
2023-01-21T10:33:27.656Z,47.30
2023-01-21T10:36:00.243Z,44.93
2023-01-21T10:38:36.979Z,40.67
2023-01-21T10:41:10.197Z,45.30
2023-01-21T10:43:42.892Z,43.87
2023-01-21T10:46:21.570Z,40.77
2023-01-21T10:49:03.331Z,52.07
2023-01-21T10:51:42.642Z,40.53
2023-01-21T10:54:12.200Z,41.03
2023-01-21T10:56:57.335Z,41.00
2023-01-21T10:59:26.789Z,42.00
2023-01-21T11:02:05.281Z,41.83
2023-01-21T11:04:31.759Z,42.07
2023-01-21T11:07:02.653Z,37.97
2023-01-21T11:09:31.664Z,40.57
2023-01-21T11:11:58.337Z,46.73
2023-01-21T11:14:25.122Z,41.53
2023-01-21T11:16:52.495Z,37.47
2023-01-21T11:19:23.231Z,45.87
2023-01-21T11:22:04.328Z,41.17
2023-01-21T11:24:32.611Z,38.30
2023-01-21T11:27:00.254Z,40.13
2023-01-21T11:29:27.735Z,45.20
2023-01-21T11:32:02.585Z,44.87
2023-01-21T11:34:29.402Z,41.33
2023-01-21T11:37:03.882Z,41.93
2023-01-21T11:39:35.037Z,39.13
2023-01-21T11:42:05.939Z,36.70
2023-01-21T11:44:33.366Z,38.60
2023-01-21T11:46:59.863Z,38.13
2023-01-21T11:49:31.573Z,43.40
2023-01-21T11:52:14.327Z,39.47
2023-01-21T11:54:40.818Z,36.10
2023-01-21T11:57:17.872Z,40.90
2023-01-21T11:59:45.859Z,40.23
2023-01-21T12:02:20.859Z,36.60
2023-01-21T12:04:49.160Z,36.37
2023-01-21T12:07:20.504Z,33.03
2023-01-21T12:10:16.758Z,32.73
2023-01-21T12:13:02.278Z,30.77
2023-01-21T12:15:41.139Z,29.00
2023-01-21T12:18:29.729Z,31.07
2023-01-21T12:20:59.140Z,26.53
2023-01-21T12:23:25.722Z,28.97
2023-01-21T12:25:58.239Z,29.27
2023-01-21T12:28:27.736Z,31.47
2023-01-21T12:31:00.410Z,28.67
2023-01-21T12:33:29.928Z,23.70
2023-01-21T12:35:58.176Z,30.63
2023-01-21T12:38:30.333Z,30.27
2023-01-21T12:41:02.653Z,25.43
2023-01-21T12:43:34.063Z,29.60
2023-01-21T12:46:10.463Z,29.37
2023-01-21T12:48:42.589Z,25.93
2023-01-21T12:51:16.534Z,29.97
2023-01-21T12:53:56.682Z,27.07
2023-01-21T12:56:28.461Z,28.60
2023-01-21T12:58:58.841Z,27.17
2023-01-21T13:01:44.478Z,28.57
2023-01-21T13:04:30.140Z,29.00
2023-01-21T13:07:08.665Z,27.33
2023-01-21T13:09:45.769Z,30.17
2023-01-21T13:12:17.596Z,28.33
2023-01-21T13:14:48.284Z,25.33
2023-01-21T13:17:17.404Z,27.43
2023-01-21T13:19:43.915Z,28.37
2023-01-21T13:22:33.564Z,28.70
2023-01-21T13:25:06.242Z,31.10
2023-01-21T13:27:44.817Z,29.60
2023-01-21T13:30:23.068Z,30.63
2023-01-21T13:33:01.059Z,31.83
2023-01-21T13:35:27.650Z,30.90
2023-01-21T13:37:57.157Z,26.70
2023-01-21T13:40:49.886Z,27.97
2023-01-21T13:43:31.191Z,28.20
2023-01-21T13:46:09.866Z,32.53
2023-01-21T13:48:44.878Z,32.30
2023-01-21T13:51:17.525Z,30.90
2023-01-21T13:53:53.458Z,33.77
2023-01-21T13:56:38.863Z,29.20
2023-01-21T13:59:17.509Z,30.87
2023-01-21T14:01:59.450Z,29.53
2023-01-21T14:04:32.071Z,27.00
2023-01-21T14:07:05.016Z,27.80
2023-01-21T14:09:37.151Z,25.30
2023-01-21T14:12:13.193Z,28.90
2023-01-21T14:14:48.677Z,28.90
2023-01-21T14:17:27.994Z,26.90
2023-01-21T14:19:54.470Z,26.07
2023-01-21T14:22:26.323Z,21.90
2023-01-21T14:25:03.898Z,23.40
2023-01-21T14:27:36.414Z,23.13
2023-01-21T14:30:08.983Z,21.93
2023-01-21T14:32:39.247Z,19.43
2023-01-21T14:35:27.503Z,17.20
2023-01-21T14:38:03.379Z,18.10
2023-01-21T14:40:31.302Z,19.47
2023-01-21T14:42:59.055Z,20.47
2023-01-21T14:45:45.679Z,19.00
2023-01-21T14:48:32.489Z,18.73
2023-01-21T14:51:05.132Z,17.83
2023-01-21T14:53:31.643Z,21.20
2023-01-21T14:56:28.912Z,20.13
2023-01-21T14:59:03.500Z,18.67
2023-01-21T15:01:41.743Z,18.47
2023-01-21T15:04:28.388Z,19.43
2023-01-21T15:06:59.895Z,19.90
2023-01-21T15:09:42.521Z,21.33
2023-01-21T15:12:21.034Z,23.10
2023-01-21T15:14:47.700Z,19.03
2023-01-21T15:17:32.940Z,23.17
2023-01-21T15:20:19.292Z,23.73
2023-01-21T15:22:48.085Z,22.77
2023-01-21T15:25:14.521Z,23.83
2023-01-21T15:27:41.106Z,24.57
2023-01-21T15:30:25.922Z,24.07
2023-01-21T15:32:52.459Z,26.13
2023-01-21T15:35:35.363Z,24.50
2023-01-21T15:38:01.782Z,24.60
2023-01-21T15:40:48.531Z,25.03
2023-01-21T15:43:33.791Z,22.50
2023-01-21T15:49:26.037Z,19.07
2023-01-21T15:52:04.938Z,21.57
2023-01-21T15:54:47.628Z,20.03
2023-01-21T15:57:33.059Z,22.80
2023-01-21T16:00:25.927Z,21.87
2023-01-21T16:03:00.435Z,22.77
2023-01-21T16:05:31.919Z,22.60
2023-01-21T16:07:59.539Z,21.23
2023-01-21T16:10:35.428Z,21.83
2023-01-21T16:13:13.440Z,24.07
2023-01-21T16:16:06.585Z,23.20
2023-01-21T16:18:58.504Z,22.37
2023-01-21T16:21:35.266Z,22.50
2023-01-21T16:24:07.709Z,20.47
2023-01-21T16:26:34.848Z,21.90
2023-01-21T16:29:01.828Z,21.30
2023-01-21T16:31:28.463Z,21.17
2023-01-21T16:33:55.151Z,20.53
2023-01-21T16:36:21.706Z,19.00
2023-01-21T16:38:49.542Z,20.07
2023-01-21T16:41:18.765Z,20.87
2023-01-21T16:43:48.197Z,24.13
2023-01-21T16:46:16.283Z,20.37
2023-01-21T16:48:43.266Z,18.10
2023-01-21T16:51:20.721Z,20.93
2023-01-21T16:53:48.707Z,19.37
2023-01-21T16:56:28.579Z,19.90
2023-01-21T16:58:56.031Z,19.17
2023-01-21T17:01:24.722Z,23.27
2023-01-21T17:03:51.250Z,19.23
2023-01-21T17:06:25.260Z,16.97
2023-01-21T17:08:54.696Z,16.07
2023-01-21T17:11:21.834Z,19.17
2023-01-21T17:13:48.770Z,21.27
2023-01-21T17:16:21.325Z,17.73
2023-01-21T17:18:53.047Z,15.80
2023-01-21T17:21:22.703Z,16.13
2023-01-21T17:23:52.247Z,15.53
2023-01-21T17:26:18.654Z,15.10
2023-01-21T17:28:46.966Z,16.33
2023-01-21T17:31:16.477Z,17.23
2023-01-21T17:33:43.763Z,17.63
2023-01-21T17:36:15.254Z,15.33
2023-01-21T17:38:45.351Z,14.90
2023-01-21T17:41:38.117Z,15.47
2023-01-21T17:44:09.196Z,16.20
2023-01-21T17:46:35.725Z,12.93
2023-01-21T17:49:06.256Z,13.80
2023-01-21T17:51:33.867Z,15.20
2023-01-21T17:54:04.940Z,15.93
2023-01-21T17:56:34.169Z,15.27
2023-01-21T17:59:03.569Z,16.87
2023-01-21T18:01:30.505Z,16.43
2023-01-21T18:03:57.198Z,18.20
2023-01-21T18:06:28.096Z,16.17
2023-01-21T18:08:56.322Z,16.10
2023-01-21T18:11:22.878Z,15.60
2023-01-21T18:13:49.987Z,15.93
2023-01-21T18:16:16.483Z,17.97
2023-01-21T18:18:43.022Z,16.03
2023-01-21T18:21:16.353Z,17.67
2023-01-21T18:23:42.843Z,17.83
2023-01-21T18:26:16.340Z,20.57
2023-01-21T18:28:42.761Z,20.07
2023-01-21T18:31:09.481Z,17.03
2023-01-21T18:33:36.031Z,20.53
2023-01-21T18:36:02.542Z,19.83
2023-01-21T18:38:30.233Z,19.03
2023-01-21T18:40:58.211Z,22.13
2023-01-21T18:43:25.458Z,21.03
2023-01-21T18:45:54.153Z,18.40
2023-01-21T18:48:22.716Z,19.97
2023-01-21T18:50:49.173Z,19.93
2023-01-21T18:53:15.720Z,19.13
2023-01-21T18:55:44.060Z,20.47
2023-01-21T18:58:15.266Z,21.73
2023-01-21T19:00:41.818Z,18.67
2023-01-21T19:03:10.252Z,18.70
2023-01-21T19:05:38.402Z,22.10
2023-01-21T19:08:06.112Z,19.37
2023-01-21T19:10:35.832Z,19.33
2023-01-21T19:13:02.437Z,19.20
2023-01-21T19:15:31.760Z,23.03
2023-01-21T19:17:58.127Z,20.70
2023-01-21T19:20:25.618Z,23.87
2023-01-21T19:22:52.964Z,22.00
2023-01-21T19:25:19.944Z,20.90
2023-01-21T19:27:47.896Z,20.83
2023-01-21T19:30:24.846Z,20.23
2023-01-21T19:32:52.019Z,22.83
2023-01-21T19:35:20.441Z,22.50
2023-01-21T19:37:50.652Z,21.97
2023-01-21T19:40:21.186Z,21.03
2023-01-21T19:42:48.085Z,19.67
2023-01-21T19:45:15.111Z,22.50
2023-01-21T19:47:42.956Z,20.63
2023-01-21T19:50:20.175Z,21.77
2023-01-21T19:52:47.656Z,19.07
2023-01-21T19:55:15.245Z,23.60
2023-01-21T19:57:42.360Z,23.37
2023-01-21T20:00:15.219Z,23.07
2023-01-21T20:02:41.969Z,22.43
2023-01-21T20:05:08.593Z,24.57
2023-01-21T20:07:35.032Z,21.60
2023-01-21T20:10:12.179Z,23.20
2023-01-21T20:12:38.600Z,22.13
2023-01-21T20:15:05.328Z,23.60
2023-01-21T20:17:32.658Z,22.13
2023-01-21T20:19:59.104Z,23.23
2023-01-21T20:22:26.264Z,24.27
2023-01-21T20:24:52.695Z,24.50
2023-01-21T20:27:19.160Z,24.10
2023-01-21T20:29:55.740Z,30.20
2023-01-21T20:32:28.873Z,29.97
2023-01-21T20:34:55.336Z,26.40
2023-01-21T20:37:21.775Z,31.47
2023-01-21T20:39:48.187Z,28.83
2023-01-21T20:42:14.606Z,27.77
2023-01-21T20:44:41.061Z,29.37
2023-01-21T20:47:09.635Z,32.70
2023-01-21T20:49:36.150Z,30.37
2023-01-21T20:52:03.008Z,34.80
2023-01-21T20:54:29.444Z,32.33
2023-01-21T20:56:55.863Z,34.83
2023-01-21T20:59:22.641Z,37.83
2023-01-21T21:01:51.265Z,36.30
2023-01-21T21:04:17.806Z,37.67
2023-01-21T21:06:45.708Z,35.67
2023-01-21T21:09:12.179Z,32.07
2023-01-21T21:11:38.579Z,33.67
2023-01-21T21:14:05.080Z,36.87
2023-01-21T21:16:33.583Z,36.87
2023-01-21T21:19:00.575Z,36.03
2023-01-21T21:21:27.785Z,37.10
2023-01-21T21:23:54.240Z,39.27
2023-01-21T21:26:22.194Z,40.30
2023-01-21T21:28:48.842Z,39.20
2023-01-21T21:31:16.716Z,40.33
2023-01-21T21:33:43.782Z,39.27
2023-01-21T21:36:17.612Z,39.47
2023-01-21T21:38:44.395Z,45.37
2023-01-21T21:41:44.284Z,40.17
2023-01-21T21:44:10.847Z,38.27
2023-01-21T21:46:56.324Z,40.77
2023-01-21T21:49:23.045Z,41.87
2023-01-21T21:51:49.484Z,43.87
2023-01-21T21:54:16.302Z,42.67
2023-01-21T21:56:43.043Z,39.30
2023-01-21T21:59:10.430Z,40.47
2023-01-21T22:01:37.004Z,41.10
2023-01-21T22:04:03.971Z,42.50
2023-01-21T22:06:30.536Z,42.47
2023-01-21T22:08:59.944Z,39.13
2023-01-21T22:11:27.337Z,39.80
2023-01-21T22:13:54.056Z,38.37
2023-01-21T22:16:23.528Z,37.87
2023-01-21T22:18:50.287Z,41.30
2023-01-21T22:21:21.526Z,38.67
2023-01-21T22:23:48.009Z,43.57
2023-01-21T22:26:16.040Z,38.17
2023-01-21T22:28:43.215Z,38.00
2023-01-21T22:31:20.505Z,33.30
2023-01-21T22:33:47.038Z,34.93
2023-01-21T22:36:15.232Z,36.03
2023-01-21T22:38:41.851Z,33.03
2023-01-21T22:41:09.460Z,33.37
2023-01-21T22:43:38.029Z,35.97
2023-01-21T22:46:04.705Z,35.10
2023-01-21T22:48:31.555Z,35.00
2023-01-21T22:50:58.959Z,32.70
2023-01-21T22:53:25.814Z,34.30
2023-01-21T22:55:56.037Z,34.40
2023-01-21T22:58:22.849Z,32.50
2023-01-21T23:00:49.814Z,31.50
2023-01-21T23:03:16.860Z,35.67
2023-01-21T23:05:43.428Z,34.73
2023-01-21T23:08:10.119Z,30.57
2023-01-21T23:10:36.513Z,36.70
2023-01-21T23:13:02.922Z,32.70
2023-01-21T23:15:29.299Z,31.23
2023-01-21T23:17:56.014Z,33.57
2023-01-21T23:20:22.564Z,32.63
2023-01-21T23:22:49.125Z,33.70
2023-01-21T23:25:15.609Z,36.13
2023-01-21T23:27:42.137Z,33.23
2023-01-21T23:30:09.744Z,32.97
2023-01-21T23:32:36.240Z,30.50
2023-01-21T23:35:02.677Z,35.13
2023-01-21T23:37:29.124Z,37.03
2023-01-21T23:39:55.509Z,34.90
2023-01-21T23:42:23.622Z,34.60
2023-01-21T23:44:50.617Z,31.57
2023-01-21T23:47:17.665Z,34.37
2023-01-21T23:49:44.098Z,36.37
2023-01-21T23:52:12.450Z,31.13
2023-01-21T23:54:43.268Z,33.73
2023-01-21T23:57:11.270Z,31.03
2023-01-21T23:59:37.846Z,28.80
